sensor_id;sensor_type;location;lat;lon;timestamp;pressure;altitude;pressure_sealevel;temperature;humidity
75681;BME280;64294;49.176;16.626;2023-12-14T00:02:04;97952.22;;;2.93;100.00
75681;BME280;64294;49.176;16.626;2023-12-14T00:04:29;97965.81;;;2.97;100.00
75681;BME280;64294;49.176;16.626;2023-12-14T00:06:55;97962.78;;;3.00;100.00
75681;BME280;64294;49.176;16.626;2023-12-14T00:09:20;97970.34;;;3.00;100.00
75681;BME280;64294;49.176;16.626;2023-12-14T00:11:46;97970.28;;;3.06;100.00
75681;BME280;64294;49.176;16.626;2023-12-14T00:14:11;97969.78;;;3.07;100.00
75681;BME280;64294;49.176;16.626;2023-12-14T00:16:36;97974.88;;;2.97;100.00
75681;BME280;64294;49.176;16.626;2023-12-14T00:19:02;97968.41;;;2.89;100.00
75681;BME280;64294;49.176;16.626;2023-12-14T00:21:27;97974.47;;;2.88;100.00
75681;BME280;64294;49.176;16.626;2023-12-14T00:23:53;97969.97;;;2.85;100.00
75681;BME280;64294;49.176;16.626;2023-12-14T00:26:21;97967.94;;;2.85;100.00
75681;BME280;64294;49.176;16.626;2023-12-14T00:28:47;97966.97;;;2.83;100.00
75681;BME280;64294;49.176;16.626;2023-12-14T00:31:12;97955.63;;;2.81;100.00
75681;BME280;64294;49.176;16.626;2023-12-14T00:33:37;97965.22;;;2.80;100.00
75681;BME280;64294;49.176;16.626;2023-12-14T00:36:03;97968.69;;;2.86;100.00
75681;BME280;64294;49.176;16.626;2023-12-14T00:38:29;97976.03;;;2.83;100.00
75681;BME280;64294;49.176;16.626;2023-12-14T00:40:57;97977.25;;;2.88;100.00
75681;BME280;64294;49.176;16.626;2023-12-14T00:43:22;97988.59;;;2.90;100.00
75681;BME280;64294;49.176;16.626;2023-12-14T00:45:48;97973.69;;;2.93;100.00
75681;BME280;64294;49.176;16.626;2023-12-14T00:48:14;97971.66;;;2.93;100.00
75681;BME280;64294;49.176;16.626;2023-12-14T00:50:39;97974.94;;;2.92;100.00
75681;BME280;64294;49.176;16.626;2023-12-14T00:53:05;97973.69;;;2.93;100.00
75681;BME280;64294;49.176;16.626;2023-12-14T00:55:30;97977.94;;;2.94;100.00
75681;BME280;64294;49.176;16.626;2023-12-14T00:57:55;97990.53;;;3.00;100.00
75681;BME280;64294;49.176;16.626;2023-12-14T01:00:21;97993.78;;;3.04;100.00
75681;BME280;64294;49.176;16.626;2023-12-14T01:02:46;98005.16;;;3.01;100.00
75681;BME280;64294;49.176;16.626;2023-12-14T01:05:12;98006.31;;;3.11;100.00
75681;BME280;64294;49.176;16.626;2023-12-14T01:07:37;98007.88;;;3.07;100.00
75681;BME280;64294;49.176;16.626;2023-12-14T01:10:03;98010.59;;;3.12;100.00
75681;BME280;64294;49.176;16.626;2023-12-14T01:12:29;98020.31;;;3.00;100.00
75681;BME280;64294;49.176;16.626;2023-12-14T01:14:55;98020.81;;;2.98;100.00
75681;BME280;64294;49.176;16.626;2023-12-14T01:17:20;98019.28;;;2.97;100.00
75681;BME280;64294;49.176;16.626;2023-12-14T01:19:46;98015.22;;;3.04;100.00
75681;BME280;64294;49.176;16.626;2023-12-14T01:22:12;98020.31;;;3.00;100.00
75681;BME280;64294;49.176;16.626;2023-12-14T01:24:37;98015.78;;;2.97;100.00
75681;BME280;64294;49.176;16.626;2023-12-14T01:27:03;98015.00;;;2.96;100.00
75681;BME280;64294;49.176;16.626;2023-12-14T01:29:28;98024.16;;;2.91;100.00
75681;BME280;64294;49.176;16.626;2023-12-14T01:31:53;98019.59;;;2.94;100.00
75681;BME280;64294;49.176;16.626;2023-12-14T01:34:19;98017.03;;;2.96;100.00
75681;BME280;64294;49.176;16.626;2023-12-14T01:36:44;98024.09;;;2.97;100.00
75681;BME280;64294;49.176;16.626;2023-12-14T01:39:10;98026.63;;;2.95;100.00
75681;BME280;64294;49.176;16.626;2023-12-14T01:41:35;98025.38;;;2.96;100.00
75681;BME280;64294;49.176;16.626;2023-12-14T01:44:00;98029.16;;;2.98;100.00
75681;BME280;64294;49.176;16.626;2023-12-14T01:46:26;98037.22;;;2.96;100.00
75681;BME280;64294;49.176;16.626;2023-12-14T01:48:51;98042.00;;;2.96;100.00
75681;BME280;64294;49.176;16.626;2023-12-14T01:51:18;98039.56;;;2.87;100.00
75681;BME280;64294;49.176;16.626;2023-12-14T01:53:43;98044.31;;;2.92;100.00
75681;BME280;64294;49.176;16.626;2023-12-14T01:56:09;98056.47;;;2.89;100.00
75681;BME280;64294;49.176;16.626;2023-12-14T01:58:34;98050.69;;;2.87;100.00
75681;BME280;64294;49.176;16.626;2023-12-14T02:03:44;98050.16;;;2.88;100.00
75681;BME280;64294;49.176;16.626;2023-12-14T02:06:10;98046.63;;;2.88;100.00
75681;BME280;64294;49.176;16.626;2023-12-14T02:08:35;98050.41;;;2.90;100.00
75681;BME280;64294;49.176;16.626;2023-12-14T02:11:01;98048.88;;;2.89;100.00
75681;BME280;64294;49.176;16.626;2023-12-14T02:13:26;98048.94;;;2.84;100.00
75681;BME280;64294;49.176;16.626;2023-12-14T02:15:52;98051.25;;;2.80;100.00
75681;BME280;64294;49.176;16.626;2023-12-14T02:18:19;98048.19;;;2.78;100.00
75681;BME280;64294;49.176;16.626;2023-12-14T02:20:44;98051.25;;;2.74;100.00
75681;BME280;64294;49.176;16.626;2023-12-14T02:23:09;98050.03;;;2.69;100.00
75681;BME280;64294;49.176;16.626;2023-12-14T02:25:35;98057.59;;;2.69;100.00
75681;BME280;64294;49.176;16.626;2023-12-14T02:28:00;98055.59;;;2.69;100.00
75681;BME280;64294;49.176;16.626;2023-12-14T02:30:26;98060.09;;;2.72;100.00
75681;BME280;64294;49.176;16.626;2023-12-14T02:32:51;98056.81;;;2.74;100.00
75681;BME280;64294;49.176;16.626;2023-12-14T02:35:16;98056.28;;;2.81;100.00
75681;BME280;64294;49.176;16.626;2023-12-14T02:37:43;98057.50;;;2.86;100.00
75681;BME280;64294;49.176;16.626;2023-12-14T02:40:09;98057.41;;;2.97;100.00
75681;BME280;64294;49.176;16.626;2023-12-14T02:42:35;98064.22;;;2.96;100.00
75681;BME280;64294;49.176;16.626;2023-12-14T02:45:02;98059.41;;;2.96;100.00
75681;BME280;64294;49.176;16.626;2023-12-14T02:47:30;98066.16;;;3.07;100.00
75681;BME280;64294;49.176;16.626;2023-12-14T02:49:58;98059.06;;;3.11;100.00
75681;BME280;64294;49.176;16.626;2023-12-14T02:52:24;98061.75;;;3.22;100.00
75681;BME280;64294;49.176;16.626;2023-12-14T02:54:50;98062.00;;;3.24;100.00
75681;BME280;64294;49.176;16.626;2023-12-14T02:57:18;98068.25;;;3.30;100.00
75681;BME280;64294;49.176;16.626;2023-12-14T02:59:44;98071.00;;;3.36;100.00
75681;BME280;64294;49.176;16.626;2023-12-14T03:02:09;98064.09;;;3.43;100.00
75681;BME280;64294;49.176;16.626;2023-12-14T03:07:24;98062.47;;;3.53;100.00
75681;BME280;64294;49.176;16.626;2023-12-14T03:09:50;98061.16;;;3.59;100.00
75681;BME280;64294;49.176;16.626;2023-12-14T03:12:15;98067.63;;;3.68;100.00
75681;BME280;64294;49.176;16.626;2023-12-14T03:14:40;98068.47;;;3.62;100.00
75681;BME280;64294;49.176;16.626;2023-12-14T03:17:07;98072.00;;;3.63;100.00
75681;BME280;64294;49.176;16.626;2023-12-14T03:19:38;98083.56;;;3.67;100.00
75681;BME280;64294;49.176;16.626;2023-12-14T03:22:03;98089.13;;;3.67;100.00
75681;BME280;64294;49.176;16.626;2023-12-14T03:24:28;98096.06;;;3.55;100.00
75681;BME280;64294;49.176;16.626;2023-12-14T03:26:54;98100.13;;;3.54;100.00
75681;BME280;64294;49.176;16.626;2023-12-14T03:29:19;98094.22;;;3.63;100.00
75681;BME280;64294;49.176;16.626;2023-12-14T03:31:46;98098.72;;;3.66;100.00
75681;BME280;64294;49.176;16.626;2023-12-14T03:34:11;98105.78;;;3.67;100.00
75681;BME280;64294;49.176;16.626;2023-12-14T03:36:37;98112.63;;;3.66;100.00
75681;BME280;64294;49.176;16.626;2023-12-14T03:39:02;98112.91;;;3.62;100.00
75681;BME280;64294;49.176;16.626;2023-12-14T03:41:28;98121.53;;;3.59;100.00
75681;BME280;64294;49.176;16.626;2023-12-14T03:43:53;98127.63;;;3.57;100.00
75681;BME280;64294;49.176;16.626;2023-12-14T03:46:19;98119.31;;;3.52;100.00
75681;BME280;64294;49.176;16.626;2023-12-14T03:48:44;98125.59;;;3.58;100.00
75681;BME280;64294;49.176;16.626;2023-12-14T03:51:09;98121.34;;;3.51;100.00
75681;BME280;64294;49.176;16.626;2023-12-14T03:53:35;98131.31;;;3.65;100.00
75681;BME280;64294;49.176;16.626;2023-12-14T03:56:00;98128.06;;;3.61;100.00
75681;BME280;64294;49.176;16.626;2023-12-14T03:58:26;98132.06;;;3.66;100.00
75681;BME280;64294;49.176;16.626;2023-12-14T04:00:52;98130.03;;;3.67;100.00
75681;BME280;64294;49.176;16.626;2023-12-14T04:03:17;98135.81;;;3.74;100.00
75681;BME280;64294;49.176;16.626;2023-12-14T04:05:42;98136.78;;;3.77;100.00
75681;BME280;64294;49.176;16.626;2023-12-14T04:08:09;98140.78;;;3.81;100.00
75681;BME280;64294;49.176;16.626;2023-12-14T04:10:35;98144.59;;;3.78;100.00
75681;BME280;64294;49.176;16.626;2023-12-14T04:13:00;98140.53;;;3.79;100.00
75681;BME280;64294;49.176;16.626;2023-12-14T04:15:26;98150.38;;;3.80;100.00
75681;BME280;64294;49.176;16.626;2023-12-14T04:17:51;98146.09;;;3.79;100.00
75681;BME280;64294;49.176;16.626;2023-12-14T04:20:17;98158.72;;;3.80;100.00
75681;BME280;64294;49.176;16.626;2023-12-14T04:22:45;98148.78;;;3.90;100.00
75681;BME280;64294;49.176;16.626;2023-12-14T04:25:10;98162.78;;;3.79;100.00
75681;BME280;64294;49.176;16.626;2023-12-14T04:27:39;98166.06;;;3.78;100.00
75681;BME280;64294;49.176;16.626;2023-12-14T04:30:05;98163.25;;;3.83;100.00
75681;BME280;64294;49.176;16.626;2023-12-14T04:32:35;98168.09;;;3.77;100.00
75681;BME280;64294;49.176;16.626;2023-12-14T04:35:01;98167.28;;;3.82;100.00
75681;BME280;64294;49.176;16.626;2023-12-14T04:37:26;98173.91;;;3.79;100.00
75681;BME280;64294;49.176;16.626;2023-12-14T04:39:52;98177.72;;;3.76;100.00
75681;BME280;64294;49.176;16.626;2023-12-14T04:42:17;98177.47;;;3.74;100.00
75681;BME280;64294;49.176;16.626;2023-12-14T04:44:43;98176.44;;;3.77;100.00
75681;BME280;64294;49.176;16.626;2023-12-14T04:47:08;98180.97;;;3.80;100.00
75681;BME280;64294;49.176;16.626;2023-12-14T04:49:34;98180.78;;;3.73;100.00
75681;BME280;64294;49.176;16.626;2023-12-14T04:51:59;98180.28;;;3.69;100.00
75681;BME280;64294;49.176;16.626;2023-12-14T04:54:25;98181.63;;;3.62;100.00
75681;BME280;64294;49.176;16.626;2023-12-14T04:56:50;98185.19;;;3.57;100.00
75681;BME280;64294;49.176;16.626;2023-12-14T04:59:16;98187.97;;;3.57;100.00
75681;BME280;64294;49.176;16.626;2023-12-14T05:01:41;98189.25;;;3.56;100.00
75681;BME280;64294;49.176;16.626;2023-12-14T05:04:07;98186.69;;;3.58;100.00
75681;BME280;64294;49.176;16.626;2023-12-14T05:06:39;98197.28;;;3.59;100.00
75681;BME280;64294;49.176;16.626;2023-12-14T05:09:04;98199.31;;;3.59;100.00
75681;BME280;64294;49.176;16.626;2023-12-14T05:11:31;98202.91;;;3.54;100.00
75681;BME280;64294;49.176;16.626;2023-12-14T05:13:56;98205.69;;;3.54;100.00
75681;BME280;64294;49.176;16.626;2023-12-14T05:16:23;98203.91;;;3.51;100.00
75681;BME280;64294;49.176;16.626;2023-12-14T05:18:52;98211.72;;;3.52;100.00
75681;BME280;64294;49.176;16.626;2023-12-14T05:21:18;98216.53;;;3.52;100.00
75681;BME280;64294;49.176;16.626;2023-12-14T05:23:43;98213.75;;;3.52;100.00
75681;BME280;64294;49.176;16.626;2023-12-14T05:26:08;98215.31;;;3.47;100.00
75681;BME280;64294;49.176;16.626;2023-12-14T05:28:34;98221.09;;;3.55;100.00
75681;BME280;64294;49.176;16.626;2023-12-14T05:31:00;98221.09;;;3.55;100.00
75681;BME280;64294;49.176;16.626;2023-12-14T05:33:26;98221.09;;;3.49;100.00
75681;BME280;64294;49.176;16.626;2023-12-14T05:35:51;98218.84;;;3.48;100.00
75681;BME280;64294;49.176;16.626;2023-12-14T05:38:17;98220.59;;;3.51;100.00
75681;BME280;64294;49.176;16.626;2023-12-14T05:40:42;98226.94;;;3.46;100.00
75681;BME280;64294;49.176;16.626;2023-12-14T05:43:09;98224.41;;;3.48;100.00
75681;BME280;64294;49.176;16.626;2023-12-14T05:45:35;98233.75;;;3.45;100.00
75681;BME280;64294;49.176;16.626;2023-12-14T05:48:01;98239.78;;;3.49;100.00
75681;BME280;64294;49.176;16.626;2023-12-14T05:50:27;98241.34;;;3.44;100.00
75681;BME280;64294;49.176;16.626;2023-12-14T05:52:52;98243.84;;;3.48;100.00
75681;BME280;64294;49.176;16.626;2023-12-14T05:55:18;98248.88;;;3.49;100.00
75681;BME280;64294;49.176;16.626;2023-12-14T05:57:49;98265.25;;;3.53;100.00
75681;BME280;64294;49.176;16.626;2023-12-14T06:00:15;98266.06;;;3.48;100.00
75681;BME280;64294;49.176;16.626;2023-12-14T06:02:41;98272.84;;;3.52;100.00
75681;BME280;64294;49.176;16.626;2023-12-14T06:05:07;98273.34;;;3.56;100.00
75681;BME280;64294;49.176;16.626;2023-12-14T06:07:33;98284.97;;;3.55;100.00
75681;BME280;64294;49.176;16.626;2023-12-14T06:09:58;98285.97;;;3.57;100.00
75681;BME280;64294;49.176;16.626;2023-12-14T06:12:24;98289.44;;;3.63;100.00
75681;BME280;64294;49.176;16.626;2023-12-14T06:14:49;98292.28;;;3.58;100.00
75681;BME280;64294;49.176;16.626;2023-12-14T06:17:16;98300.06;;;3.65;100.00
75681;BME280;64294;49.176;16.626;2023-12-14T06:19:50;98295.34;;;3.49;100.00
75681;BME280;64294;49.176;16.626;2023-12-14T06:22:16;98305.22;;;3.44;100.00
75681;BME280;64294;49.176;16.626;2023-12-14T06:24:41;98298.16;;;3.43;100.00
75681;BME280;64294;49.176;16.626;2023-12-14T06:27:07;98309.50;;;3.45;100.00
75681;BME280;64294;49.176;16.626;2023-12-14T06:29:45;98310.25;;;3.46;100.00
75681;BME280;64294;49.176;16.626;2023-12-14T06:32:11;98313.09;;;3.34;100.00
75681;BME280;64294;49.176;16.626;2023-12-14T06:34:39;98319.84;;;3.50;100.00
75681;BME280;64294;49.176;16.626;2023-12-14T06:37:09;98325.94;;;3.43;100.00
75681;BME280;64294;49.176;16.626;2023-12-14T06:39:36;98329.22;;;3.42;100.00
75681;BME280;64294;49.176;16.626;2023-12-14T06:42:04;98339.09;;;3.31;100.00
75681;BME280;64294;49.176;16.626;2023-12-14T06:44:29;98341.63;;;3.35;100.00
75681;BME280;64294;49.176;16.626;2023-12-14T06:46:56;98338.88;;;3.29;100.00
75681;BME280;64294;49.176;16.626;2023-12-14T06:49:23;98344.16;;;3.33;100.00
75681;BME280;64294;49.176;16.626;2023-12-14T06:51:49;98350.72;;;3.30;100.00
75681;BME280;64294;49.176;16.626;2023-12-14T06:54:17;98351.28;;;3.23;100.00
75681;BME280;64294;49.176;16.626;2023-12-14T06:56:42;98351.78;;;3.21;100.00
75681;BME280;64294;49.176;16.626;2023-12-14T06:59:08;98361.38;;;3.20;100.00
75681;BME280;64294;49.176;16.626;2023-12-14T07:01:33;98364.44;;;3.17;100.00
75681;BME280;64294;49.176;16.626;2023-12-14T07:04:01;98373.22;;;3.26;100.00
75681;BME280;64294;49.176;16.626;2023-12-14T07:06:29;98377.25;;;3.25;100.00
75681;BME280;64294;49.176;16.626;2023-12-14T07:08:54;98379.28;;;3.25;100.00
75681;BME280;64294;49.176;16.626;2023-12-14T07:11:20;98376.25;;;3.28;100.00
75681;BME280;64294;49.176;16.626;2023-12-14T07:13:45;98383.56;;;3.26;100.00
75681;BME280;64294;49.176;16.626;2023-12-14T07:16:11;98396.16;;;3.32;100.00
75681;BME280;64294;49.176;16.626;2023-12-14T07:18:37;98393.13;;;3.30;100.00
75681;BME280;64294;49.176;16.626;2023-12-14T07:21:04;98408.03;;;3.39;100.00
75681;BME280;64294;49.176;16.626;2023-12-14T07:23:29;98414.06;;;3.43;100.00
75681;BME280;64294;49.176;16.626;2023-12-14T07:25:55;98425.94;;;3.43;100.00
75681;BME280;64294;49.176;16.626;2023-12-14T07:28:21;98431.69;;;3.56;100.00
75681;BME280;64294;49.176;16.626;2023-12-14T07:30:47;98440.28;;;3.58;100.00
75681;BME280;64294;49.176;16.626;2023-12-14T07:33:12;98442.31;;;3.58;100.00
75681;BME280;64294;49.176;16.626;2023-12-14T07:35:38;98450.34;;;3.67;100.00
75681;BME280;64294;49.176;16.626;2023-12-14T07:38:03;98453.13;;;3.73;100.00
75681;BME280;64294;49.176;16.626;2023-12-14T07:40:29;98453.84;;;3.79;100.00
75681;BME280;64294;49.176;16.626;2023-12-14T07:42:54;98471.47;;;3.87;100.00
75681;BME280;64294;49.176;16.626;2023-12-14T07:45:20;98466.44;;;3.91;100.00
75681;BME280;64294;49.176;16.626;2023-12-14T07:50:35;98484.31;;;4.01;100.00
75681;BME280;64294;49.176;16.626;2023-12-14T07:53:03;98488.06;;;4.09;100.00
75681;BME280;64294;49.176;16.626;2023-12-14T07:55:30;98485.03;;;4.07;100.00
75681;BME280;64294;49.176;16.626;2023-12-14T07:57:55;98502.91;;;4.23;100.00
75681;BME280;64294;49.176;16.626;2023-12-14T08:00:30;98503.09;;;4.36;100.00
75681;BME280;64294;49.176;16.626;2023-12-14T08:02:56;98504.56;;;4.43;100.00
75681;BME280;64294;49.176;16.626;2023-12-14T08:05:21;98513.59;;;4.54;100.00
75681;BME280;64294;49.176;16.626;2023-12-14T08:07:47;98514.59;;;4.57;100.00
75681;BME280;64294;49.176;16.626;2023-12-14T08:10:13;98523.63;;;4.69;100.00
75681;BME280;64294;49.176;16.626;2023-12-14T08:12:38;98526.25;;;4.55;100.00
75681;BME280;64294;49.176;16.626;2023-12-14T08:15:04;98531.34;;;4.51;100.00
75681;BME280;64294;49.176;16.626;2023-12-14T08:17:29;98536.16;;;4.45;100.00
75681;BME280;64294;49.176;16.626;2023-12-14T08:19:55;98539.13;;;4.59;100.00
75681;BME280;64294;49.176;16.626;2023-12-14T08:22:20;98544.69;;;4.59;100.00
75681;BME280;64294;49.176;16.626;2023-12-14T08:24:47;98549.34;;;4.80;100.00
75681;BME280;64294;49.176;16.626;2023-12-14T08:27:13;98555.72;;;4.75;100.00
75681;BME280;64294;49.176;16.626;2023-12-14T08:29:39;98560.28;;;4.73;100.00
75681;BME280;64294;49.176;16.626;2023-12-14T08:32:04;98564.03;;;4.81;100.00
75681;BME280;64294;49.176;16.626;2023-12-14T08:34:30;98566.47;;;4.96;100.00
75681;BME280;64294;49.176;16.626;2023-12-14T08:36:56;98571.34;;;5.20;100.00
75681;BME280;64294;49.176;16.626;2023-12-14T08:39:21;98571.44;;;5.08;100.00
75681;BME280;64294;49.176;16.626;2023-12-14T08:41:47;98581.06;;;5.37;100.00
75681;BME280;64294;49.176;16.626;2023-12-14T08:44:14;98579.09;;;5.32;100.00
75681;BME280;64294;49.176;16.626;2023-12-14T08:46:41;98588.53;;;5.54;100.00
75681;BME280;64294;49.176;16.626;2023-12-14T08:49:07;98591.06;;;5.82;100.00
75681;BME280;64294;49.176;16.626;2023-12-14T08:51:32;98598.00;;;5.99;100.00
75681;BME280;64294;49.176;16.626;2023-12-14T08:53:58;98609.00;;;6.16;100.00
75681;BME280;64294;49.176;16.626;2023-12-14T08:56:23;98605.84;;;6.25;100.00
75681;BME280;64294;49.176;16.626;2023-12-14T08:58:49;98598.34;;;6.77;100.00
75681;BME280;64294;49.176;16.626;2023-12-14T09:01:21;98620.75;;;7.86;99.61
75681;BME280;64294;49.176;16.626;2023-12-14T09:03:47;98623.25;;;9.16;91.72
75681;BME280;64294;49.176;16.626;2023-12-14T09:06:12;98617.09;;;9.80;84.43
75681;BME280;64294;49.176;16.626;2023-12-14T09:08:37;98623.38;;;10.87;78.83
75681;BME280;64294;49.176;16.626;2023-12-14T09:11:04;98626.38;;;11.63;72.62
75681;BME280;64294;49.176;16.626;2023-12-14T09:13:30;98627.31;;;12.19;68.63
75681;BME280;64294;49.176;16.626;2023-12-14T09:15:55;98633.94;;;14.67;60.37
75681;BME280;64294;49.176;16.626;2023-12-14T09:18:21;98629.19;;;16.70;52.95
75681;BME280;64294;49.176;16.626;2023-12-14T09:20:48;98630.69;;;17.00;51.00
75681;BME280;64294;49.176;16.626;2023-12-14T09:23:15;98633.44;;;16.32;49.93
75681;BME280;64294;49.176;16.626;2023-12-14T09:25:41;98646.66;;;16.56;51.38
75681;BME280;64294;49.176;16.626;2023-12-14T09:28:06;98656.13;;;16.22;50.76
75681;BME280;64294;49.176;16.626;2023-12-14T09:30:32;98651.94;;;15.77;51.39
75681;BME280;64294;49.176;16.626;2023-12-14T09:32:58;98654.91;;;15.79;50.46
75681;BME280;64294;49.176;16.626;2023-12-14T09:35:23;98656.25;;;16.15;49.71
75681;BME280;64294;49.176;16.626;2023-12-14T09:37:48;98658.75;;;18.46;46.11
75681;BME280;64294;49.176;16.626;2023-12-14T09:40:15;98652.09;;;18.01;45.10
75681;BME280;64294;49.176;16.626;2023-12-14T09:42:41;98645.03;;;16.92;46.68
75681;BME280;64294;49.176;16.626;2023-12-14T09:45:08;98659.91;;;17.50;46.21
75681;BME280;64294;49.176;16.626;2023-12-14T09:47:35;98651.94;;;18.30;43.90
75681;BME280;64294;49.176;16.626;2023-12-14T09:50:01;98656.47;;;17.93;45.21
75681;BME280;64294;49.176;16.626;2023-12-14T09:52:28;98657.50;;;17.47;45.33
75681;BME280;64294;49.176;16.626;2023-12-14T09:54:53;98661.06;;;18.81;43.82
75681;BME280;64294;49.176;16.626;2023-12-14T09:57:19;98664.59;;;17.87;44.46
75681;BME280;64294;49.176;16.626;2023-12-14T09:59:54;98650.03;;;17.42;45.66
75681;BME280;64294;49.176;16.626;2023-12-14T10:02:20;98656.06;;;17.87;45.25
75681;BME280;64294;49.176;16.626;2023-12-14T10:04:49;98664.00;;;18.40;44.09
75681;BME280;64294;49.176;16.626;2023-12-14T10:07:15;98658.19;;;19.47;43.07
75681;BME280;64294;49.176;16.626;2023-12-14T10:09:42;98669.66;;;19.71;41.18
75681;BME280;64294;49.176;16.626;2023-12-14T10:12:09;98670.41;;;19.26;42.36
75681;BME280;64294;49.176;16.626;2023-12-14T10:14:35;98672.16;;;18.56;43.27
75681;BME280;64294;49.176;16.626;2023-12-14T10:17:14;98673.41;;;17.31;45.59
75681;BME280;64294;49.176;16.626;2023-12-14T10:19:45;98682.19;;;16.01;48.91
75681;BME280;64294;49.176;16.626;2023-12-14T10:22:16;98677.84;;;15.47;50.13
75681;BME280;64294;49.176;16.626;2023-12-14T10:24:48;98677.94;;;14.60;52.01
75681;BME280;64294;49.176;16.626;2023-12-14T10:27:14;98678.09;;;14.79;52.08
75681;BME280;64294;49.176;16.626;2023-12-14T10:29:49;98687.53;;;14.40;54.00
75681;BME280;64294;49.176;16.626;2023-12-14T10:32:19;98683.44;;;14.75;54.08
75681;BME280;64294;49.176;16.626;2023-12-14T10:35:08;98693.78;;;14.13;54.15
75681;BME280;64294;49.176;16.626;2023-12-14T10:37:37;98694.78;;;13.76;55.16
75681;BME280;64294;49.176;16.626;2023-12-14T10:40:05;98699.69;;;13.75;55.95
75681;BME280;64294;49.176;16.626;2023-12-14T10:42:32;98694.72;;;13.18;57.26
75681;BME280;64294;49.176;16.626;2023-12-14T10:45:02;98697.91;;;12.67;59.48
75681;BME280;64294;49.176;16.626;2023-12-14T10:47:28;98702.03;;;12.58;59.42
75681;BME280;64294;49.176;16.626;2023-12-14T10:49:54;98706.50;;;12.77;60.44
75681;BME280;64294;49.176;16.626;2023-12-14T10:52:22;98714.25;;;12.46;60.71
75681;BME280;64294;49.176;16.626;2023-12-14T10:54:53;98718.91;;;11.74;64.06
75681;BME280;64294;49.176;16.626;2023-12-14T10:57:21;98726.09;;;11.91;63.54
75681;BME280;64294;49.176;16.626;2023-12-14T10:59:49;98730.75;;;11.21;66.21
75681;BME280;64294;49.176;16.626;2023-12-14T11:02:14;98732.63;;;10.83;68.61
75681;BME280;64294;49.176;16.626;2023-12-14T11:04:58;98724.53;;;10.51;70.09
75681;BME280;64294;49.176;16.626;2023-12-14T11:10:10;98741.41;;;9.67;74.35
75681;BME280;64294;49.176;16.626;2023-12-14T11:12:36;98748.22;;;9.59;75.60
75681;BME280;64294;49.176;16.626;2023-12-14T11:15:02;98752.72;;;9.62;77.42
75681;BME280;64294;49.176;16.626;2023-12-14T11:17:29;98752.53;;;9.13;80.08
75681;BME280;64294;49.176;16.626;2023-12-14T11:19:55;98753.09;;;9.11;80.15
75681;BME280;64294;49.176;16.626;2023-12-14T11:22:27;98745.78;;;8.82;81.35
75681;BME280;64294;49.176;16.626;2023-12-14T11:24:54;98746.31;;;8.80;82.17
75681;BME280;64294;49.176;16.626;2023-12-14T11:27:25;98741.66;;;8.83;82.06
75681;BME280;64294;49.176;16.626;2023-12-14T11:29:52;98752.13;;;8.82;83.21
75681;BME280;64294;49.176;16.626;2023-12-14T11:32:18;98747.06;;;8.80;83.80
75681;BME280;64294;49.176;16.626;2023-12-14T11:34:46;98745.53;;;8.66;85.03
75681;BME280;64294;49.176;16.626;2023-12-14T11:37:12;98744.47;;;8.69;85.19
75681;BME280;64294;49.176;16.626;2023-12-14T11:39:38;98756.97;;;8.82;84.12
75681;BME280;64294;49.176;16.626;2023-12-14T11:42:05;98755.69;;;8.83;84.38
75681;BME280;64294;49.176;16.626;2023-12-14T11:44:40;98755.78;;;8.77;85.07
75681;BME280;64294;49.176;16.626;2023-12-14T11:47:06;98752.53;;;9.13;83.84
75681;BME280;64294;49.176;16.626;2023-12-14T11:49:31;98761.22;;;9.49;82.55
75681;BME280;64294;49.176;16.626;2023-12-14T11:51:57;98760.28;;;9.67;80.96
75681;BME280;64294;49.176;16.626;2023-12-14T11:54:23;98755.53;;;9.62;81.76
75681;BME280;64294;49.176;16.626;2023-12-14T11:56:50;98759.00;;;9.89;79.11
75681;BME280;64294;49.176;16.626;2023-12-14T11:59:16;98765.22;;;9.74;79.44
75681;BME280;64294;49.176;16.626;2023-12-14T12:01:58;98765.19;;;9.87;80.23
75681;BME280;64294;49.176;16.626;2023-12-14T12:04:24;98766.94;;;9.98;86.52
75681;BME280;64294;49.176;16.626;2023-12-14T12:06:58;98770.25;;;10.10;79.62
75681;BME280;64294;49.176;16.626;2023-12-14T12:09:35;98771.19;;;9.91;80.56
75681;BME280;64294;49.176;16.626;2023-12-14T12:12:01;98767.09;;;9.92;79.48
75681;BME280;64294;49.176;16.626;2023-12-14T12:14:30;98773.50;;;9.80;80.51
75681;BME280;64294;49.176;16.626;2023-12-14T12:16:55;98772.41;;;10.03;78.59
75681;BME280;64294;49.176;16.626;2023-12-14T12:19:21;98779.06;;;10.27;77.46
75681;BME280;64294;49.176;16.626;2023-12-14T12:21:46;98779.84;;;10.56;76.92
75681;BME280;64294;49.176;16.626;2023-12-14T12:24:12;98782.78;;;10.50;75.25
75681;BME280;64294;49.176;16.626;2023-12-14T12:26:40;98782.41;;;10.75;74.94
75681;BME280;64294;49.176;16.626;2023-12-14T12:29:05;98782.50;;;10.41;76.44
75681;BME280;64294;49.176;16.626;2023-12-14T12:31:31;98785.78;;;10.24;77.14
75681;BME280;64294;49.176;16.626;2023-12-14T12:33:57;98799.00;;;10.02;78.01
75681;BME280;64294;49.176;16.626;2023-12-14T12:36:22;98793.34;;;9.48;81.49
75681;BME280;64294;49.176;16.626;2023-12-14T12:38:48;98801.66;;;9.53;80.73
75681;BME280;64294;49.176;16.626;2023-12-14T12:41:13;98803.31;;;9.22;82.92
75681;BME280;64294;49.176;16.626;2023-12-14T12:43:38;98808.16;;;9.22;83.65
75681;BME280;64294;49.176;16.626;2023-12-14T12:46:04;98806.13;;;8.96;85.95
75681;BME280;64294;49.176;16.626;2023-12-14T12:48:30;98802.22;;;8.86;85.18
75681;BME280;64294;49.176;16.626;2023-12-14T12:50:58;98814.72;;;8.71;86.62
75681;BME280;64294;49.176;16.626;2023-12-14T12:53:24;98816.19;;;8.46;87.70
75681;BME280;64294;49.176;16.626;2023-12-14T12:55:49;98817.06;;;8.54;88.22
75681;BME280;64294;49.176;16.626;2023-12-14T12:58:15;98822.69;;;9.47;84.16